createdAt,value
2023-05-23T00:01:43.236Z,21.63
2023-05-23T00:04:10.838Z,21.62
2023-05-23T00:06:38.821Z,21.61
2023-05-23T00:09:06.120Z,21.58
2023-05-23T00:11:33.125Z,21.58
2023-05-23T00:14:01.303Z,21.58
2023-05-23T00:16:28.500Z,21.58
2023-05-23T00:18:57.607Z,21.57
2023-05-23T00:21:24.686Z,21.58
2023-05-23T00:23:51.716Z,21.58
2023-05-23T00:26:18.667Z,21.58
2023-05-23T00:28:46.788Z,21.58
2023-05-23T00:31:13.739Z,21.58
2023-05-23T00:33:40.820Z,21.58
2023-05-23T00:36:07.794Z,21.56
2023-05-23T00:38:34.709Z,21.56
2023-05-23T00:41:02.559Z,21.53
2023-05-23T00:43:29.566Z,21.51
2023-05-23T00:45:56.575Z,21.48
2023-05-23T00:48:25.683Z,21.41
2023-05-23T00:50:53.972Z,21.32
2023-05-23T00:53:21.726Z,21.26
2023-05-23T00:55:48.910Z,21.23
2023-05-23T00:58:17.694Z,21.25
2023-05-23T01:00:50.368Z,21.22
2023-05-23T01:03:18.920Z,21.20
2023-05-23T01:05:45.978Z,21.17
2023-05-23T01:08:13.178Z,21.15
2023-05-23T01:10:40.229Z,21.15
2023-05-23T01:13:24.419Z,21.14
2023-05-23T01:16:19.747Z,21.12
2023-05-23T01:19:04.780Z,21.10
2023-05-23T01:21:32.520Z,21.05
2023-05-23T01:24:19.488Z,21.04
2023-05-23T01:27:06.170Z,21.07
2023-05-23T01:29:38.992Z,21.04
2023-05-23T01:32:11.605Z,21.04
2023-05-23T01:34:40.351Z,21.02
2023-05-23T01:37:11.831Z,20.99
2023-05-23T01:39:39.102Z,20.96
2023-05-23T01:42:06.936Z,20.95
2023-05-23T01:44:36.374Z,20.84
2023-05-23T01:47:04.551Z,20.75
2023-05-23T01:49:32.549Z,20.73
2023-05-23T01:52:01.861Z,20.66
2023-05-23T01:54:30.571Z,20.72
2023-05-23T01:56:58.280Z,20.70
2023-05-23T01:59:25.510Z,20.74
2023-05-23T02:01:53.670Z,20.76
2023-05-23T02:04:21.722Z,20.76
2023-05-23T02:06:48.650Z,20.79
2023-05-23T02:09:15.713Z,20.77
2023-05-23T02:11:42.668Z,20.79
2023-05-23T02:14:11.170Z,20.79
2023-05-23T02:16:38.221Z,20.77
2023-05-23T02:19:05.253Z,20.76
2023-05-23T02:21:34.834Z,20.76
2023-05-23T02:24:03.710Z,20.77
2023-05-23T02:26:30.699Z,20.77
2023-05-23T02:28:57.622Z,20.78
2023-05-23T02:31:25.180Z,20.79
2023-05-23T02:33:52.137Z,20.79
2023-05-23T02:36:19.181Z,20.78
2023-05-23T02:38:46.145Z,20.74
2023-05-23T02:41:13.064Z,20.80
2023-05-23T02:43:40.006Z,20.79
2023-05-23T02:46:07.152Z,20.79
2023-05-23T02:48:34.114Z,20.79
2023-05-23T02:51:01.210Z,20.73
2023-05-23T02:53:28.262Z,20.64
2023-05-23T02:55:55.642Z,20.53
2023-05-23T02:58:22.804Z,20.45
2023-05-23T03:00:49.758Z,20.35
2023-05-23T03:03:17.697Z,20.24
2023-05-23T03:05:44.864Z,20.09
2023-05-23T03:08:12.190Z,20.03
2023-05-23T03:10:40.299Z,20.01
2023-05-23T03:13:07.397Z,20.05
2023-05-23T03:15:35.557Z,20.09
2023-05-23T03:18:02.851Z,20.11
2023-05-23T03:20:32.133Z,20.13
2023-05-23T03:22:59.161Z,20.16
2023-05-23T03:25:26.251Z,20.16
2023-05-23T03:27:54.788Z,20.17
2023-05-23T03:30:22.169Z,20.16
2023-05-23T03:32:50.046Z,20.20
2023-05-23T03:35:17.324Z,20.21
2023-05-23T03:37:44.420Z,20.27
2023-05-23T03:40:11.496Z,20.27
2023-05-23T03:42:40.046Z,20.23
2023-05-23T03:45:09.127Z,20.21
2023-05-23T03:47:36.545Z,20.18
2023-05-23T03:50:03.832Z,20.18
2023-05-23T03:52:31.425Z,20.20
2023-05-23T03:54:58.521Z,20.21
2023-05-23T03:57:25.593Z,20.24
2023-05-23T03:59:53.036Z,20.26
2023-05-23T04:02:22.551Z,20.25
2023-05-23T04:04:49.638Z,20.21
2023-05-23T04:07:16.789Z,20.15
2023-05-23T04:09:44.920Z,20.12
2023-05-23T04:12:13.504Z,20.10
2023-05-23T04:14:40.570Z,20.07
2023-05-23T04:17:09.212Z,20.03
2023-05-23T04:19:36.716Z,19.96
2023-05-23T04:22:03.777Z,19.93
2023-05-23T04:24:31.029Z,19.95
2023-05-23T04:26:59.350Z,20.00
2023-05-23T04:29:26.568Z,20.09
2023-05-23T04:31:54.984Z,20.16
2023-05-23T04:34:22.476Z,20.20
2023-05-23T04:36:49.788Z,20.25
2023-05-23T04:39:17.118Z,20.30
2023-05-23T04:42:00.560Z,20.35
2023-05-23T04:44:45.769Z,20.41
2023-05-23T04:47:19.067Z,20.46
2023-05-23T04:49:57.596Z,20.52
2023-05-23T04:52:25.480Z,20.57
2023-05-23T04:54:54.068Z,20.59
2023-05-23T04:57:22.071Z,20.68
2023-05-23T04:59:49.174Z,20.73
2023-05-23T05:02:16.175Z,20.77
2023-05-23T05:04:43.083Z,20.80
2023-05-23T05:07:10.842Z,20.84
2023-05-23T05:09:37.771Z,20.87
2023-05-23T05:12:04.985Z,20.93
2023-05-23T05:14:31.909Z,21.00
2023-05-23T05:17:00.052Z,21.07
2023-05-23T05:19:34.415Z,21.12
2023-05-23T05:22:01.496Z,21.16
2023-05-23T05:24:29.850Z,21.23
2023-05-23T05:26:57.554Z,21.28
2023-05-23T05:29:25.295Z,21.36
2023-05-23T05:31:53.407Z,21.44
2023-05-23T05:34:20.873Z,21.51
2023-05-23T05:36:48.312Z,21.58
2023-05-23T05:39:17.721Z,21.66
2023-05-23T05:41:44.777Z,21.66
2023-05-23T05:44:11.811Z,21.66
2023-05-23T05:46:39.077Z,21.73
2023-05-23T05:49:06.036Z,21.79
2023-05-23T05:51:32.984Z,21.84
2023-05-23T05:54:00.152Z,21.90
2023-05-23T05:56:27.886Z,21.95
2023-05-23T05:58:54.855Z,22.08
2023-05-23T06:01:22.469Z,22.18
2023-05-23T06:03:49.651Z,22.28
2023-05-23T06:06:18.069Z,22.36
2023-05-23T06:08:45.204Z,22.43
2023-05-23T06:11:16.273Z,22.47
2023-05-23T06:13:43.203Z,22.57
2023-05-23T06:16:10.538Z,22.64
2023-05-23T06:18:37.556Z,22.74
2023-05-23T06:21:04.568Z,22.80
2023-05-23T06:23:33.185Z,22.89
2023-05-23T06:26:00.130Z,22.97
2023-05-23T06:28:27.333Z,23.05
2023-05-23T06:30:54.251Z,23.12
2023-05-23T06:33:21.188Z,23.20
2023-05-23T06:35:49.229Z,23.26
2023-05-23T06:38:17.805Z,23.31
2023-05-23T06:40:45.087Z,23.34
2023-05-23T06:43:12.531Z,23.37
2023-05-23T06:45:47.742Z,23.33
2023-05-23T06:48:14.857Z,23.34
2023-05-23T06:50:42.496Z,23.34
2023-05-23T06:53:11.237Z,23.34
2023-05-23T06:55:38.386Z,23.33
2023-05-23T06:58:07.736Z,23.34
2023-05-23T07:00:36.861Z,23.35
2023-05-23T07:03:24.106Z,23.35
2023-05-23T07:05:51.911Z,23.37
2023-05-23T07:08:20.053Z,23.39
2023-05-23T07:10:59.566Z,23.36
2023-05-23T07:13:44.785Z,23.42
2023-05-23T07:16:19.699Z,23.43
2023-05-23T07:19:03.256Z,23.45
2023-05-23T07:21:31.713Z,23.47
2023-05-23T07:23:58.634Z,23.48
2023-05-23T07:26:27.362Z,23.52
2023-05-23T07:28:56.134Z,23.48
2023-05-23T07:31:23.414Z,23.56
2023-05-23T07:33:56.815Z,23.59
2023-05-23T07:36:34.132Z,23.61
2023-05-23T07:39:02.092Z,23.65
2023-05-23T07:41:29.052Z,23.67
2023-05-23T07:43:56.073Z,23.69
2023-05-23T07:46:23.136Z,23.71
2023-05-23T07:48:50.128Z,23.71
2023-05-23T07:51:19.314Z,23.74
2023-05-23T07:53:46.257Z,23.76
2023-05-23T07:56:13.967Z,23.78
2023-05-23T07:58:42.683Z,23.80
2023-05-23T08:01:09.712Z,23.87
2023-05-23T08:03:59.486Z,23.90
2023-05-23T08:06:38.641Z,23.94
2023-05-23T08:09:10.225Z,23.96
2023-05-23T08:11:42.418Z,23.98
2023-05-23T08:14:09.464Z,24.05
2023-05-23T08:16:39.209Z,24.09
2023-05-23T08:19:14.362Z,24.13
2023-05-23T08:21:42.473Z,24.14
2023-05-23T08:24:09.445Z,24.15
2023-05-23T08:26:39.445Z,24.19
2023-05-23T08:29:10.620Z,24.25
2023-05-23T08:31:37.930Z,24.32
2023-05-23T08:34:06.864Z,24.39
2023-05-23T08:36:36.721Z,24.45
2023-05-23T08:39:05.405Z,24.52
2023-05-23T08:41:36.869Z,24.63
2023-05-23T08:44:08.989Z,24.72
2023-05-23T08:46:46.728Z,24.80
2023-05-23T08:49:23.138Z,24.87
2023-05-23T08:51:55.961Z,24.90
2023-05-23T08:54:23.008Z,24.95
2023-05-23T08:56:52.231Z,24.98
2023-05-23T08:59:20.177Z,25.00
2023-05-23T09:01:48.636Z,24.99
2023-05-23T09:04:17.202Z,25.04
2023-05-23T09:06:57.556Z,25.00
2023-05-23T09:09:25.764Z,25.02
2023-05-23T09:11:54.456Z,25.02
2023-05-23T09:14:22.548Z,25.04
2023-05-23T09:16:52.132Z,25.02
2023-05-23T09:19:22.618Z,25.04
2023-05-23T09:21:55.985Z,25.05
2023-05-23T09:24:36.290Z,25.06
2023-05-23T09:27:07.276Z,25.11
2023-05-23T09:29:40.441Z,25.13
2023-05-23T09:32:21.359Z,25.13
2023-05-23T09:35:06.404Z,25.17
2023-05-23T09:37:35.791Z,25.19
2023-05-23T09:40:12.241Z,25.19
2023-05-23T09:42:45.099Z,25.22
2023-05-23T09:45:13.857Z,25.24
2023-05-23T09:47:51.079Z,25.24
2023-05-23T09:50:18.260Z,25.21
2023-05-23T09:52:46.489Z,25.28
2023-05-23T09:55:13.961Z,25.32
2023-05-23T09:57:43.228Z,25.35
2023-05-23T10:00:12.335Z,25.39
2023-05-23T10:03:15.109Z,25.40
2023-05-23T10:05:47.526Z,25.47
2023-05-23T10:08:40.294Z,25.56
2023-05-23T10:11:36.025Z,25.65
2023-05-23T10:14:09.572Z,25.71
2023-05-23T10:17:19.072Z,25.84
2023-05-23T10:19:56.677Z,25.99
2023-05-23T10:22:24.539Z,26.10
2023-05-23T10:24:51.654Z,26.18
2023-05-23T10:27:19.107Z,26.25
2023-05-23T10:29:46.881Z,26.32
2023-05-23T10:32:15.066Z,26.34
2023-05-23T10:35:09.876Z,26.44
2023-05-23T10:38:07.048Z,26.53
2023-05-23T10:41:07.012Z,26.66
2023-05-23T10:44:01.060Z,26.77
2023-05-23T10:46:52.771Z,26.81
2023-05-23T10:49:20.574Z,26.93
2023-05-23T10:51:52.349Z,27.10
2023-05-23T10:54:22.918Z,27.17
2023-05-23T10:57:04.453Z,27.36
2023-05-23T10:59:31.880Z,27.55
2023-05-23T11:02:01.379Z,27.67
2023-05-23T11:04:29.396Z,27.75
2023-05-23T11:06:57.634Z,27.83
2023-05-23T11:09:24.782Z,27.80
2023-05-23T11:11:54.587Z,27.71
2023-05-23T11:14:55.879Z,27.66
2023-05-23T11:17:33.670Z,27.72
2023-05-23T11:20:06.996Z,27.88
2023-05-23T11:22:35.070Z,27.99
2023-05-23T11:25:08.142Z,28.07
2023-05-23T11:27:40.946Z,28.16
2023-05-23T11:30:10.309Z,28.27
2023-05-23T11:32:37.861Z,28.36
2023-05-23T11:35:07.662Z,28.45
2023-05-23T11:37:36.111Z,28.52
2023-05-23T11:40:41.577Z,28.49
2023-05-23T11:43:11.887Z,28.48
2023-05-23T11:45:40.021Z,28.55
2023-05-23T11:48:08.370Z,28.62
2023-05-23T11:50:44.473Z,28.70
2023-05-23T11:53:11.775Z,28.72
2023-05-23T11:55:41.828Z,28.68
2023-05-23T11:58:10.351Z,28.73
2023-05-23T12:00:46.458Z,28.83
2023-05-23T12:03:13.693Z,28.95
2023-05-23T12:05:44.789Z,28.99
2023-05-23T12:08:14.508Z,28.94
2023-05-23T12:10:57.693Z,28.86
2023-05-23T12:13:26.247Z,28.92
2023-05-23T12:16:00.638Z,29.01
2023-05-23T12:18:32.277Z,29.14
2023-05-23T12:21:05.768Z,29.22
2023-05-23T12:23:34.992Z,29.34
2023-05-23T12:26:10.379Z,29.40
2023-05-23T12:28:43.556Z,29.35
2023-05-23T12:31:19.429Z,29.12
2023-05-23T12:33:48.593Z,28.83
2023-05-23T12:36:23.973Z,28.60
2023-05-23T12:38:50.969Z,28.58
2023-05-23T12:41:20.149Z,28.61
2023-05-23T12:43:55.232Z,28.65
2023-05-23T12:46:24.237Z,28.68
2023-05-23T12:48:51.536Z,28.70
2023-05-23T12:51:18.623Z,28.68
2023-05-23T12:53:45.644Z,28.65
2023-05-23T12:56:12.687Z,28.58
2023-05-23T12:58:39.662Z,28.50
2023-05-23T13:01:06.613Z,28.42
2023-05-23T13:03:33.662Z,28.35
2023-05-23T13:06:00.798Z,28.26
2023-05-23T13:08:27.847Z,28.18
2023-05-23T13:10:54.860Z,28.03
2023-05-23T13:13:22.488Z,27.89
2023-05-23T13:15:51.134Z,27.75
2023-05-23T13:18:18.815Z,27.61
2023-05-23T13:20:46.474Z,27.46
2023-05-23T13:23:13.611Z,27.29
2023-05-23T13:25:40.810Z,27.11
2023-05-23T13:28:07.926Z,26.98
2023-05-23T13:30:35.054Z,26.81
2023-05-23T13:33:02.408Z,26.68
2023-05-23T13:35:29.513Z,26.52
2023-05-23T13:37:56.422Z,26.37
2023-05-23T13:40:23.406Z,26.22
2023-05-23T13:42:51.608Z,25.99
2023-05-23T13:45:19.919Z,25.82
2023-05-23T13:47:47.289Z,25.69
2023-05-23T13:50:14.485Z,25.56
2023-05-23T13:52:44.927Z,25.43
2023-05-23T13:55:13.587Z,25.33
2023-05-23T13:57:40.626Z,25.26
2023-05-23T14:00:08.896Z,25.18
2023-05-23T14:02:36.052Z,25.09
2023-05-23T14:05:03.758Z,24.85
2023-05-23T14:07:31.370Z,24.78
2023-05-23T14:09:59.634Z,24.63
2023-05-23T14:12:26.630Z,24.44
2023-05-23T14:14:53.568Z,24.26
2023-05-23T14:17:20.662Z,24.13
2023-05-23T14:19:47.792Z,24.02
2023-05-23T14:22:14.776Z,23.89
2023-05-23T14:24:42.456Z,23.76
2023-05-23T14:27:11.117Z,23.67
2023-05-23T14:29:39.052Z,23.59
2023-05-23T14:32:06.540Z,23.51
2023-05-23T14:34:33.702Z,23.41
2023-05-23T14:37:01.387Z,23.28
2023-05-23T14:39:29.196Z,23.19
2023-05-23T14:41:56.622Z,23.08
2023-05-23T14:44:23.815Z,22.96
2023-05-23T14:46:50.923Z,22.82
2023-05-23T14:49:18.195Z,22.77
2023-05-23T14:51:50.402Z,22.70
2023-05-23T14:54:18.555Z,22.59
2023-05-23T14:56:45.643Z,22.56
2023-05-23T14:59:12.628Z,22.47
2023-05-23T15:01:40.673Z,22.28
2023-05-23T15:04:09.658Z,22.31
2023-05-23T15:06:38.855Z,22.21
2023-05-23T15:09:06.226Z,22.11
2023-05-23T15:11:34.987Z,22.00
2023-05-23T15:14:02.207Z,21.95
2023-05-23T15:16:32.914Z,21.90
2023-05-23T15:19:00.312Z,21.81
2023-05-23T15:21:27.631Z,21.67
2023-05-23T15:23:54.653Z,21.62
2023-05-23T15:26:22.533Z,21.52
2023-05-23T15:28:49.806Z,21.41
2023-05-23T15:31:16.860Z,21.28
2023-05-23T15:33:43.870Z,21.13
2023-05-23T15:36:13.050Z,21.04
2023-05-23T15:38:40.491Z,20.96
2023-05-23T15:41:07.473Z,20.86
2023-05-23T15:43:37.698Z,20.78
2023-05-23T15:46:05.454Z,20.69
2023-05-23T15:48:32.466Z,20.63
2023-05-23T15:50:59.411Z,20.57
2023-05-23T15:53:26.353Z,20.37
2023-05-23T15:55:53.257Z,20.27
2023-05-23T15:58:20.692Z,20.14
2023-05-23T16:00:47.657Z,19.98
2023-05-23T16:03:14.690Z,19.80
2023-05-23T16:05:41.837Z,19.73
2023-05-23T16:08:09.017Z,19.62
2023-05-23T16:10:36.026Z,19.55
2023-05-23T16:13:03.119Z,19.49
2023-05-23T16:15:30.126Z,19.34
2023-05-23T16:17:57.091Z,19.36
2023-05-23T16:20:24.143Z,19.28
2023-05-23T16:22:51.126Z,19.23
2023-05-23T16:25:18.087Z,19.17
2023-05-23T16:27:45.014Z,19.10
2023-05-23T16:30:12.170Z,19.02
2023-05-23T16:32:39.146Z,18.93
2023-05-23T16:35:06.650Z,18.86
2023-05-23T16:37:33.584Z,18.78
2023-05-23T16:40:00.690Z,18.70
2023-05-23T16:42:27.768Z,18.61
2023-05-23T16:44:54.882Z,18.54
2023-05-23T16:47:21.867Z,18.53
2023-05-23T16:49:48.843Z,18.52
2023-05-23T16:52:16.745Z,18.51
2023-05-23T16:54:43.854Z,18.51
2023-05-23T16:57:11.650Z,18.50
2023-05-23T16:59:38.619Z,18.50
2023-05-23T17:02:05.531Z,18.46
2023-05-23T17:04:32.478Z,18.48
2023-05-23T17:06:59.404Z,18.45
2023-05-23T17:09:26.461Z,18.44
2023-05-23T17:11:53.479Z,18.43
2023-05-23T17:14:20.792Z,18.43
2023-05-23T17:16:47.732Z,18.33
2023-05-23T17:19:14.702Z,18.39
2023-05-23T17:21:41.820Z,18.40
2023-05-23T17:24:08.746Z,18.39
2023-05-23T17:26:35.689Z,18.40
2023-05-23T17:29:02.630Z,18.41
2023-05-23T17:31:30.818Z,18.42
2023-05-23T17:33:58.126Z,18.45
2023-05-23T17:36:25.097Z,18.38
2023-05-23T17:38:54.667Z,18.48
2023-05-23T17:41:24.895Z,18.49
2023-05-23T17:43:51.840Z,18.47
2023-05-23T17:46:18.818Z,18.47
2023-05-23T17:48:47.984Z,18.49
2023-05-23T17:51:15.955Z,18.48
2023-05-23T17:53:43.288Z,18.43
2023-05-23T17:56:10.420Z,18.49
2023-05-23T17:58:38.541Z,18.50
2023-05-23T18:01:06.940Z,18.45
2023-05-23T18:03:34.056Z,18.51
2023-05-23T18:06:01.077Z,18.50
2023-05-23T18:08:28.055Z,18.49
2023-05-23T18:10:55.325Z,18.43
2023-05-23T18:13:22.449Z,18.47
2023-05-23T18:15:49.438Z,18.43
2023-05-23T18:18:17.921Z,18.46
2023-05-23T18:20:44.996Z,18.47
2023-05-23T18:23:12.122Z,18.49
2023-05-23T18:25:39.123Z,18.49
2023-05-23T18:28:06.055Z,18.51
2023-05-23T18:30:33.613Z,18.46
2023-05-23T18:33:01.134Z,18.48
2023-05-23T18:35:28.355Z,18.50
2023-05-23T18:37:55.409Z,18.50
2023-05-23T18:40:23.982Z,18.46
2023-05-23T18:42:51.092Z,18.46
2023-05-23T18:45:18.201Z,18.43
2023-05-23T18:47:45.225Z,18.36
2023-05-23T18:50:13.344Z,18.31
2023-05-23T18:52:40.829Z,18.26
2023-05-23T18:55:08.635Z,18.16
2023-05-23T18:57:35.640Z,18.17
2023-05-23T19:00:04.424Z,18.06
2023-05-23T19:02:31.555Z,18.05
2023-05-23T19:04:58.902Z,18.01
2023-05-23T19:07:25.845Z,17.95
2023-05-23T19:09:52.842Z,17.90
2023-05-23T19:12:19.923Z,17.86
2023-05-23T19:14:47.112Z,17.83
2023-05-23T19:17:14.049Z,17.73
2023-05-23T19:19:41.150Z,17.79
2023-05-23T19:22:08.203Z,17.77
2023-05-23T19:24:35.158Z,17.75
2023-05-23T19:27:02.469Z,17.73
2023-05-23T19:29:29.495Z,17.70
2023-05-23T19:31:58.264Z,17.67
2023-05-23T19:34:25.313Z,17.66
2023-05-23T19:36:52.280Z,17.65
2023-05-23T19:39:19.309Z,17.64
2023-05-23T19:41:46.356Z,17.62
2023-05-23T19:44:13.612Z,17.58
2023-05-23T19:46:40.551Z,17.55
2023-05-23T19:49:10.635Z,17.50
2023-05-23T19:51:37.814Z,17.45
2023-05-23T19:54:04.867Z,17.34
2023-05-23T19:56:32.451Z,17.33
2023-05-23T19:58:59.362Z,17.26
2023-05-23T20:01:27.426Z,17.21
2023-05-23T20:03:54.620Z,17.16
2023-05-23T20:06:22.143Z,17.12
2023-05-23T20:08:49.127Z,17.08
2023-05-23T20:11:16.313Z,17.04
2023-05-23T20:13:43.249Z,17.02
2023-05-23T20:16:10.359Z,16.99
2023-05-23T20:18:37.331Z,16.97
2023-05-23T20:21:05.322Z,16.95
2023-05-23T20:23:32.681Z,16.94
2023-05-23T20:26:00.395Z,16.93
2023-05-23T20:28:27.638Z,16.91
2023-05-23T20:30:54.593Z,16.84
2023-05-23T20:33:21.943Z,16.87
2023-05-23T20:35:48.957Z,16.87
2023-05-23T20:38:18.561Z,16.84
2023-05-23T20:40:46.349Z,16.82
2023-05-23T20:43:15.040Z,16.77
2023-05-23T20:45:42.272Z,16.73
2023-05-23T20:48:09.482Z,16.70
2023-05-23T20:50:36.637Z,16.65
2023-05-23T20:53:03.710Z,16.59
2023-05-23T20:55:30.632Z,16.54
2023-05-23T20:57:57.561Z,16.50
2023-05-23T21:00:24.560Z,16.48
2023-05-23T21:02:51.619Z,16.45
2023-05-23T21:05:18.660Z,16.41
2023-05-23T21:07:45.642Z,16.38
2023-05-23T21:10:12.598Z,16.35
2023-05-23T21:12:39.571Z,16.34
2023-05-23T21:15:07.415Z,16.31
2023-05-23T21:17:34.395Z,16.28
2023-05-23T21:20:01.350Z,16.25
2023-05-23T21:22:28.260Z,16.21
2023-05-23T21:24:55.265Z,16.17
2023-05-23T21:27:22.183Z,16.14
2023-05-23T21:29:49.114Z,16.11
2023-05-23T21:32:16.192Z,16.08
2023-05-23T21:34:43.209Z,16.05
2023-05-23T21:37:10.232Z,16.03
2023-05-23T21:39:50.744Z,15.99
2023-05-23T21:42:19.951Z,15.92
2023-05-23T21:44:47.022Z,15.91
2023-05-23T21:47:14.029Z,15.85
2023-05-23T21:49:40.991Z,15.84
2023-05-23T21:52:08.001Z,15.80
2023-05-23T21:54:35.019Z,15.77
2023-05-23T21:57:02.073Z,15.72
2023-05-23T21:59:29.016Z,15.70
2023-05-23T22:01:56.208Z,15.67
2023-05-23T22:04:23.157Z,15.65
2023-05-23T22:06:50.094Z,15.63
2023-05-23T22:09:17.053Z,15.63
2023-05-23T22:11:44.031Z,15.61
2023-05-23T22:14:11.252Z,15.60
2023-05-23T22:16:39.363Z,15.59
2023-05-23T22:19:07.185Z,15.61
2023-05-23T22:21:34.157Z,15.61
2023-05-23T22:24:01.392Z,15.62
2023-05-23T22:26:28.427Z,15.66
2023-05-23T22:28:55.910Z,15.68
2023-05-23T22:31:24.185Z,15.71
2023-05-23T22:33:51.425Z,15.73
2023-05-23T22:36:18.414Z,15.75
2023-05-23T22:38:45.735Z,15.76
2023-05-23T22:41:12.822Z,15.77
2023-05-23T22:43:40.096Z,15.77
2023-05-23T22:46:07.634Z,15.78
2023-05-23T22:48:34.629Z,15.78
2023-05-23T22:51:02.667Z,15.77
2023-05-23T22:53:30.235Z,15.77
2023-05-23T22:55:57.545Z,15.77
2023-05-23T22:58:24.545Z,15.78
2023-05-23T23:00:51.873Z,15.77
2023-05-23T23:03:19.086Z,15.77
2023-05-23T23:05:46.446Z,15.76
2023-05-23T23:08:13.485Z,15.77
2023-05-23T23:10:41.792Z,15.77
2023-05-23T23:13:09.218Z,15.81
2023-05-23T23:15:36.695Z,15.80
2023-05-23T23:18:05.848Z,15.80
2023-05-23T23:20:33.255Z,15.77
2023-05-23T23:23:00.402Z,15.76
2023-05-23T23:25:27.354Z,15.75
2023-05-23T23:27:54.279Z,15.73
2023-05-23T23:30:21.371Z,15.72
2023-05-23T23:32:48.385Z,15.68
2023-05-23T23:35:15.738Z,15.67
2023-05-23T23:37:42.670Z,15.64
2023-05-23T23:40:10.669Z,15.60
2023-05-23T23:42:37.618Z,15.59
2023-05-23T23:45:05.863Z,15.56
2023-05-23T23:47:33.100Z,15.54
2023-05-23T23:50:00.089Z,15.49
2023-05-23T23:52:27.964Z,15.50
2023-05-23T23:54:55.139Z,15.48
2023-05-23T23:57:22.219Z,15.48
2023-05-23T23:59:49.167Z,15.49
